sensor_id;sensor_type;location;lat;lon;timestamp;temperature;humidity
44729;DHT22;30457;53.590;9.922;2023-03-23T00:02:27;15.10;57.90
44729;DHT22;30457;53.590;9.922;2023-03-23T00:06:53;15.10;58.30
44729;DHT22;30457;53.590;9.922;2023-03-23T00:11:21;15.10;58.20
44729;DHT22;30457;53.590;9.922;2023-03-23T00:15:46;15.00;58.60
44729;DHT22;30457;53.590;9.922;2023-03-23T00:20:14;15.00;58.60
44729;DHT22;30457;53.590;9.922;2023-03-23T00:24:40;14.90;58.90
44729;DHT22;30457;53.590;9.922;2023-03-23T00:29:20;14.90;59.10
44729;DHT22;30457;53.590;9.922;2023-03-23T00:33:49;14.90;59.70
44729;DHT22;30457;53.590;9.922;2023-03-23T00:38:15;14.90;59.30
44729;DHT22;30457;53.590;9.922;2023-03-23T00:42:40;14.80;60.00
44729;DHT22;30457;53.590;9.922;2023-03-23T00:47:06;14.80;60.20
44729;DHT22;30457;53.590;9.922;2023-03-23T00:51:34;14.80;59.80
44729;DHT22;30457;53.590;9.922;2023-03-23T00:55:59;14.80;60.10
44729;DHT22;30457;53.590;9.922;2023-03-23T01:00:25;14.70;59.90
44729;DHT22;30457;53.590;9.922;2023-03-23T01:04:51;14.70;60.00
44729;DHT22;30457;53.590;9.922;2023-03-23T01:09:18;14.70;60.20
44729;DHT22;30457;53.590;9.922;2023-03-23T01:13:47;14.70;60.20
44729;DHT22;30457;53.590;9.922;2023-03-23T01:18:12;14.70;60.20
44729;DHT22;30457;53.590;9.922;2023-03-23T01:22:39;14.70;60.50
44729;DHT22;30457;53.590;9.922;2023-03-23T01:27:05;14.70;60.60
44729;DHT22;30457;53.590;9.922;2023-03-23T01:31:32;14.70;60.80
44729;DHT22;30457;53.590;9.922;2023-03-23T01:36:03;14.70;60.80
44729;DHT22;30457;53.590;9.922;2023-03-23T01:40:30;14.70;61.00
44729;DHT22;30457;53.590;9.922;2023-03-23T01:45:21;14.70;60.80
44729;DHT22;30457;53.590;9.922;2023-03-23T01:49:48;14.70;61.60
44729;DHT22;30457;53.590;9.922;2023-03-23T01:54:17;14.70;61.30
44729;DHT22;30457;53.590;9.922;2023-03-23T01:58:47;14.70;61.40
44729;DHT22;30457;53.590;9.922;2023-03-23T02:03:12;14.70;61.10
44729;DHT22;30457;53.590;9.922;2023-03-23T02:07:41;14.70;61.10
44729;DHT22;30457;53.590;9.922;2023-03-23T02:12:08;14.70;61.30
44729;DHT22;30457;53.590;9.922;2023-03-23T02:16:55;14.70;61.70
44729;DHT22;30457;53.590;9.922;2023-03-23T02:21:52;14.70;61.80
44729;DHT22;30457;53.590;9.922;2023-03-23T02:26:41;14.70;62.30
44729;DHT22;30457;53.590;9.922;2023-03-23T02:31:35;14.70;62.30
44729;DHT22;30457;53.590;9.922;2023-03-23T02:41:13;14.70;62.50
44729;DHT22;30457;53.590;9.922;2023-03-23T02:45:40;14.70;62.10
44729;DHT22;30457;53.590;9.922;2023-03-23T02:50:10;14.70;61.90
44729;DHT22;30457;53.590;9.922;2023-03-23T02:54:36;14.70;62.20
44729;DHT22;30457;53.590;9.922;2023-03-23T02:59:02;14.70;63.00
44729;DHT22;30457;53.590;9.922;2023-03-23T03:03:30;14.70;62.20
44729;DHT22;30457;53.590;9.922;2023-03-23T03:13:12;14.70;62.60
44729;DHT22;30457;53.590;9.922;2023-03-23T03:17:44;14.70;62.60
44729;DHT22;30457;53.590;9.922;2023-03-23T03:26:51;14.70;62.80
44729;DHT22;30457;53.590;9.922;2023-03-23T03:31:29;14.70;62.30
44729;DHT22;30457;53.590;9.922;2023-03-23T03:36:02;14.70;62.30
44729;DHT22;30457;53.590;9.922;2023-03-23T03:40:28;14.70;62.60
44729;DHT22;30457;53.590;9.922;2023-03-23T03:44:54;14.70;62.20
44729;DHT22;30457;53.590;9.922;2023-03-23T03:49:19;14.70;62.40
44729;DHT22;30457;53.590;9.922;2023-03-23T03:53:45;14.80;62.50
44729;DHT22;30457;53.590;9.922;2023-03-23T03:58:11;14.80;62.60
44729;DHT22;30457;53.590;9.922;2023-03-23T04:02:56;14.80;62.70
44729;DHT22;30457;53.590;9.922;2023-03-23T04:07:39;14.80;62.50
44729;DHT22;30457;53.590;9.922;2023-03-23T04:12:07;14.80;62.40
44729;DHT22;30457;53.590;9.922;2023-03-23T04:16:51;14.80;62.70
44729;DHT22;30457;53.590;9.922;2023-03-23T04:21:22;14.80;62.50
44729;DHT22;30457;53.590;9.922;2023-03-23T04:25:52;14.90;62.90
44729;DHT22;30457;53.590;9.922;2023-03-23T04:30:24;14.90;62.70
44729;DHT22;30457;53.590;9.922;2023-03-23T04:35:00;14.90;62.60
44729;DHT22;30457;53.590;9.922;2023-03-23T04:39:35;14.90;62.30
44729;DHT22;30457;53.590;9.922;2023-03-23T04:44:03;14.90;62.40
44729;DHT22;30457;53.590;9.922;2023-03-23T04:48:34;14.90;62.40
44729;DHT22;30457;53.590;9.922;2023-03-23T04:53:09;14.90;62.30
44729;DHT22;30457;53.590;9.922;2023-03-23T04:57:36;14.90;62.30
44729;DHT22;30457;53.590;9.922;2023-03-23T05:02:30;14.90;62.30
44729;DHT22;30457;53.590;9.922;2023-03-23T05:06:57;14.90;62.30
44729;DHT22;30457;53.590;9.922;2023-03-23T05:11:27;14.90;62.30
44729;DHT22;30457;53.590;9.922;2023-03-23T05:15:54;14.80;62.20
44729;DHT22;30457;53.590;9.922;2023-03-23T05:20:20;14.90;62.40
44729;DHT22;30457;53.590;9.922;2023-03-23T05:24:50;14.90;62.40
44729;DHT22;30457;53.590;9.922;2023-03-23T05:29:18;14.90;62.30
44729;DHT22;30457;53.590;9.922;2023-03-23T05:33:53;14.90;62.10
44729;DHT22;30457;53.590;9.922;2023-03-23T05:38:28;14.90;62.10
44729;DHT22;30457;53.590;9.922;2023-03-23T05:42:55;14.90;62.10
44729;DHT22;30457;53.590;9.922;2023-03-23T05:47:30;14.90;62.10
44729;DHT22;30457;53.590;9.922;2023-03-23T05:52:02;14.90;62.10
44729;DHT22;30457;53.590;9.922;2023-03-23T05:56:27;14.90;62.00
44729;DHT22;30457;53.590;9.922;2023-03-23T06:01:08;14.90;62.00
44729;DHT22;30457;53.590;9.922;2023-03-23T06:05:35;14.90;62.00
44729;DHT22;30457;53.590;9.922;2023-03-23T06:10:01;14.90;61.90
44729;DHT22;30457;53.590;9.922;2023-03-23T06:14:48;14.90;62.00
44729;DHT22;30457;53.590;9.922;2023-03-23T06:19:17;14.90;61.90
44729;DHT22;30457;53.590;9.922;2023-03-23T06:23:52;14.90;62.00
44729;DHT22;30457;53.590;9.922;2023-03-23T06:28:19;14.90;61.90
44729;DHT22;30457;53.590;9.922;2023-03-23T06:32:47;14.80;61.70
44729;DHT22;30457;53.590;9.922;2023-03-23T06:37:16;14.80;62.00
44729;DHT22;30457;53.590;9.922;2023-03-23T06:41:51;14.80;62.10
44729;DHT22;30457;53.590;9.922;2023-03-23T06:46:17;14.90;62.20
44729;DHT22;30457;53.590;9.922;2023-03-23T06:51:12;14.90;62.50
44729;DHT22;30457;53.590;9.922;2023-03-23T06:55:43;14.90;62.30
44729;DHT22;30457;53.590;9.922;2023-03-23T07:00:10;15.00;62.30
44729;DHT22;30457;53.590;9.922;2023-03-23T07:04:38;15.10;62.30
44729;DHT22;30457;53.590;9.922;2023-03-23T07:09:09;15.10;62.40
44729;DHT22;30457;53.590;9.922;2023-03-23T07:13:35;15.20;62.20
44729;DHT22;30457;53.590;9.922;2023-03-23T07:18:03;15.20;62.30
44729;DHT22;30457;53.590;9.922;2023-03-23T07:22:34;15.30;62.10
44729;DHT22;30457;53.590;9.922;2023-03-23T07:27:08;15.40;61.70
44729;DHT22;30457;53.590;9.922;2023-03-23T07:31:37;15.40;61.60
44729;DHT22;30457;53.590;9.922;2023-03-23T07:36:03;15.50;61.40
44729;DHT22;30457;53.590;9.922;2023-03-23T07:40:29;15.60;61.30
44729;DHT22;30457;53.590;9.922;2023-03-23T07:45:01;15.70;61.10
44729;DHT22;30457;53.590;9.922;2023-03-23T07:49:26;15.70;61.10
44729;DHT22;30457;53.590;9.922;2023-03-23T07:54:02;15.80;61.00
44729;DHT22;30457;53.590;9.922;2023-03-23T07:58:49;15.80;61.00
44729;DHT22;30457;53.590;9.922;2023-03-23T08:03:15;15.80;61.70
44729;DHT22;30457;53.590;9.922;2023-03-23T08:08:00;15.80;61.10
44729;DHT22;30457;53.590;9.922;2023-03-23T08:12:53;15.70;61.20
44729;DHT22;30457;53.590;9.922;2023-03-23T08:17:25;15.70;61.40
44729;DHT22;30457;53.590;9.922;2023-03-23T08:22:09;15.70;61.70
44729;DHT22;30457;53.590;9.922;2023-03-23T08:27:07;15.60;60.50
44729;DHT22;30457;53.590;9.922;2023-03-23T08:31:33;15.50;60.40
44729;DHT22;30457;53.590;9.922;2023-03-23T08:36:09;15.40;60.20
44729;DHT22;30457;53.590;9.922;2023-03-23T08:41:09;15.40;60.10
44729;DHT22;30457;53.590;9.922;2023-03-23T08:45:47;15.30;60.50
44729;DHT22;30457;53.590;9.922;2023-03-23T08:50:29;15.30;60.80
44729;DHT22;30457;53.590;9.922;2023-03-23T08:55:08;15.20;61.40
44729;DHT22;30457;53.590;9.922;2023-03-23T09:00:07;15.30;61.90
44729;DHT22;30457;53.590;9.922;2023-03-23T09:05:02;15.30;62.00
44729;DHT22;30457;53.590;9.922;2023-03-23T09:09:42;15.40;61.90
44729;DHT22;30457;53.590;9.922;2023-03-23T09:14:08;15.50;62.00
44729;DHT22;30457;53.590;9.922;2023-03-23T09:18:34;15.60;62.10
44729;DHT22;30457;53.590;9.922;2023-03-23T09:27:29;15.70;61.20
44729;DHT22;30457;53.590;9.922;2023-03-23T09:31:55;15.70;60.50
44729;DHT22;30457;53.590;9.922;2023-03-23T09:36:22;15.70;60.40
44729;DHT22;30457;53.590;9.922;2023-03-23T09:40:49;15.80;59.90
44729;DHT22;30457;53.590;9.922;2023-03-23T09:50:01;15.80;60.40
44729;DHT22;30457;53.590;9.922;2023-03-23T09:54:39;15.90;60.20
44729;DHT22;30457;53.590;9.922;2023-03-23T10:03:44;16.10;60.10
44729;DHT22;30457;53.590;9.922;2023-03-23T10:08:14;16.20;59.50
44729;DHT22;30457;53.590;9.922;2023-03-23T10:12:52;16.30;59.00
44729;DHT22;30457;53.590;9.922;2023-03-23T10:21:49;16.40;59.00
44729;DHT22;30457;53.590;9.922;2023-03-23T10:27:18;16.50;58.70
44729;DHT22;30457;53.590;9.922;2023-03-23T10:31:20;16.60;57.90
44729;DHT22;30457;53.590;9.922;2023-03-23T10:35:59;16.60;57.80
44729;DHT22;30457;53.590;9.922;2023-03-23T10:40:29;16.60;57.90
44729;DHT22;30457;53.590;9.922;2023-03-23T10:44:56;16.70;58.00
44729;DHT22;30457;53.590;9.922;2023-03-23T10:49:33;16.70;57.60
44729;DHT22;30457;53.590;9.922;2023-03-23T10:54:01;16.70;56.80
44729;DHT22;30457;53.590;9.922;2023-03-23T10:58:29;16.70;56.90
44729;DHT22;30457;53.590;9.922;2023-03-23T11:03:07;16.60;57.60
44729;DHT22;30457;53.590;9.922;2023-03-23T11:07:52;16.70;57.80
44729;DHT22;30457;53.590;9.922;2023-03-23T11:12:19;16.80;57.30
44729;DHT22;30457;53.590;9.922;2023-03-23T11:16:51;16.90;56.60
44729;DHT22;30457;53.590;9.922;2023-03-23T11:21:20;17.00;55.70
44729;DHT22;30457;53.590;9.922;2023-03-23T11:26:20;17.10;55.00
44729;DHT22;30457;53.590;9.922;2023-03-23T11:30:46;17.20;54.10
44729;DHT22;30457;53.590;9.922;2023-03-23T11:35:20;17.30;54.70
44729;DHT22;30457;53.590;9.922;2023-03-23T11:39:53;17.40;54.50
44729;DHT22;30457;53.590;9.922;2023-03-23T11:44:22;17.40;54.20
44729;DHT22;30457;53.590;9.922;2023-03-23T11:48:54;17.40;53.50
44729;DHT22;30457;53.590;9.922;2023-03-23T11:58:17;17.50;54.70
44729;DHT22;30457;53.590;9.922;2023-03-23T12:08:23;17.50;55.30
44729;DHT22;30457;53.590;9.922;2023-03-23T12:13:28;17.60;55.70
44729;DHT22;30457;53.590;9.922;2023-03-23T12:18:15;17.50;55.30
44729;DHT22;30457;53.590;9.922;2023-03-23T12:27:49;17.60;55.30
44729;DHT22;30457;53.590;9.922;2023-03-23T12:32:55;17.60;54.90
44729;DHT22;30457;53.590;9.922;2023-03-23T12:51:41;17.50;55.50
44729;DHT22;30457;53.590;9.922;2023-03-23T12:56:33;17.50;55.50
44729;DHT22;30457;53.590;9.922;2023-03-23T13:01:11;17.50;55.90
44729;DHT22;30457;53.590;9.922;2023-03-23T13:24:26;18.50;55.10
44729;DHT22;30457;53.590;9.922;2023-03-23T13:29:01;18.70;55.30
44729;DHT22;30457;53.590;9.922;2023-03-23T13:33:35;18.80;55.10
44729;DHT22;30457;53.590;9.922;2023-03-23T13:38:23;18.90;54.60
44729;DHT22;30457;53.590;9.922;2023-03-23T13:42:54;19.00;53.70
44729;DHT22;30457;53.590;9.922;2023-03-23T13:51:59;18.90;53.20
44729;DHT22;30457;53.590;9.922;2023-03-23T13:56:47;18.80;52.50
44729;DHT22;30457;53.590;9.922;2023-03-23T14:01:34;18.70;50.10
44729;DHT22;30457;53.590;9.922;2023-03-23T14:06:21;18.40;50.10
44729;DHT22;30457;53.590;9.922;2023-03-23T14:11:28;18.00;50.30
44729;DHT22;30457;53.590;9.922;2023-03-23T14:20:45;17.10;53.00
44729;DHT22;30457;53.590;9.922;2023-03-23T14:25:17;16.80;53.80
44729;DHT22;30457;53.590;9.922;2023-03-23T14:29:43;16.60;55.70
44729;DHT22;30457;53.590;9.922;2023-03-23T14:34:15;16.60;56.50
44729;DHT22;30457;53.590;9.922;2023-03-23T14:38:41;16.70;57.40
44729;DHT22;30457;53.590;9.922;2023-03-23T14:43:10;16.90;56.70
44729;DHT22;30457;53.590;9.922;2023-03-23T14:47:46;17.00;56.40
44729;DHT22;30457;53.590;9.922;2023-03-23T14:52:17;17.20;56.10
44729;DHT22;30457;53.590;9.922;2023-03-23T14:56:43;17.30;56.20
44729;DHT22;30457;53.590;9.922;2023-03-23T15:01:10;17.40;55.60
44729;DHT22;30457;53.590;9.922;2023-03-23T15:05:43;17.50;55.80
44729;DHT22;30457;53.590;9.922;2023-03-23T15:10:16;17.60;54.40
44729;DHT22;30457;53.590;9.922;2023-03-23T15:14:46;17.60;54.30
44729;DHT22;30457;53.590;9.922;2023-03-23T15:19:18;17.50;54.60
44729;DHT22;30457;53.590;9.922;2023-03-23T15:28:30;17.40;54.30
44729;DHT22;30457;53.590;9.922;2023-03-23T15:33:11;17.30;54.70
44729;DHT22;30457;53.590;9.922;2023-03-23T15:37:43;17.30;54.90
44729;DHT22;30457;53.590;9.922;2023-03-23T15:42:24;17.20;54.40
44729;DHT22;30457;53.590;9.922;2023-03-23T15:46:52;17.20;55.50
44729;DHT22;30457;53.590;9.922;2023-03-23T15:51:19;17.20;55.50
44729;DHT22;30457;53.590;9.922;2023-03-23T15:55:45;17.20;55.50
44729;DHT22;30457;53.590;9.922;2023-03-23T16:00:12;17.20;55.10
44729;DHT22;30457;53.590;9.922;2023-03-23T16:04:37;17.20;54.80
44729;DHT22;30457;53.590;9.922;2023-03-23T16:09:05;17.20;55.00
44729;DHT22;30457;53.590;9.922;2023-03-23T16:13:31;17.20;55.00
44729;DHT22;30457;53.590;9.922;2023-03-23T16:17:56;17.20;54.90
44729;DHT22;30457;53.590;9.922;2023-03-23T16:22:22;17.10;55.00
44729;DHT22;30457;53.590;9.922;2023-03-23T16:26:48;17.10;55.70
44729;DHT22;30457;53.590;9.922;2023-03-23T16:31:14;17.10;55.30
44729;DHT22;30457;53.590;9.922;2023-03-23T16:35:40;17.10;55.60
44729;DHT22;30457;53.590;9.922;2023-03-23T16:40:06;17.20;55.40
44729;DHT22;30457;53.590;9.922;2023-03-23T16:44:32;17.20;55.30
44729;DHT22;30457;53.590;9.922;2023-03-23T16:48:58;17.10;55.30
44729;DHT22;30457;53.590;9.922;2023-03-23T16:53:23;17.00;55.10
44729;DHT22;30457;53.590;9.922;2023-03-23T16:57:49;16.90;55.20
44729;DHT22;30457;53.590;9.922;2023-03-23T17:02:15;16.90;55.30
44729;DHT22;30457;53.590;9.922;2023-03-23T17:06:40;16.80;55.40
44729;DHT22;30457;53.590;9.922;2023-03-23T17:11:09;16.80;55.40
44729;DHT22;30457;53.590;9.922;2023-03-23T17:15:40;16.70;55.40
44729;DHT22;30457;53.590;9.922;2023-03-23T17:20:06;16.70;55.10
44729;DHT22;30457;53.590;9.922;2023-03-23T17:24:32;16.60;55.20
44729;DHT22;30457;53.590;9.922;2023-03-23T17:28:58;16.50;55.00
44729;DHT22;30457;53.590;9.922;2023-03-23T17:33:23;16.50;55.10
44729;DHT22;30457;53.590;9.922;2023-03-23T17:37:49;16.40;55.10
44729;DHT22;30457;53.590;9.922;2023-03-23T17:42:14;16.40;55.10
44729;DHT22;30457;53.590;9.922;2023-03-23T17:46:40;16.30;54.90
44729;DHT22;30457;53.590;9.922;2023-03-23T17:51:06;16.30;54.90
44729;DHT22;30457;53.590;9.922;2023-03-23T17:55:32;16.20;55.00
44729;DHT22;30457;53.590;9.922;2023-03-23T17:59:57;16.10;55.10
44729;DHT22;30457;53.590;9.922;2023-03-23T18:04:23;16.00;55.10
44729;DHT22;30457;53.590;9.922;2023-03-23T18:08:51;16.00;55.20
44729;DHT22;30457;53.590;9.922;2023-03-23T18:13:16;15.90;55.30
44729;DHT22;30457;53.590;9.922;2023-03-23T18:17:42;15.80;55.40
44729;DHT22;30457;53.590;9.922;2023-03-23T18:22:12;15.80;55.50
44729;DHT22;30457;53.590;9.922;2023-03-23T18:26:38;15.70;55.60
44729;DHT22;30457;53.590;9.922;2023-03-23T18:31:05;15.60;55.60
44729;DHT22;30457;53.590;9.922;2023-03-23T18:35:31;15.60;55.70
44729;DHT22;30457;53.590;9.922;2023-03-23T18:39:56;15.60;55.90
44729;DHT22;30457;53.590;9.922;2023-03-23T18:44:22;15.50;55.90
44729;DHT22;30457;53.590;9.922;2023-03-23T18:48:47;15.50;55.90
44729;DHT22;30457;53.590;9.922;2023-03-23T18:53:13;15.40;55.90
44729;DHT22;30457;53.590;9.922;2023-03-23T18:57:40;15.40;56.00
44729;DHT22;30457;53.590;9.922;2023-03-23T19:02:05;15.40;56.00
44729;DHT22;30457;53.590;9.922;2023-03-23T19:06:31;15.30;56.00
44729;DHT22;30457;53.590;9.922;2023-03-23T19:10:59;15.30;56.00
44729;DHT22;30457;53.590;9.922;2023-03-23T19:15:26;15.20;56.00
44729;DHT22;30457;53.590;9.922;2023-03-23T19:19:51;15.20;56.10
44729;DHT22;30457;53.590;9.922;2023-03-23T19:24:17;15.20;56.10
44729;DHT22;30457;53.590;9.922;2023-03-23T19:28:43;15.10;56.10
44729;DHT22;30457;53.590;9.922;2023-03-23T19:33:08;15.10;56.20
44729;DHT22;30457;53.590;9.922;2023-03-23T19:37:34;15.10;56.30
44729;DHT22;30457;53.590;9.922;2023-03-23T19:42:00;15.00;56.40
44729;DHT22;30457;53.590;9.922;2023-03-23T19:46:26;15.00;56.60
44729;DHT22;30457;53.590;9.922;2023-03-23T19:50:52;15.00;56.80
44729;DHT22;30457;53.590;9.922;2023-03-23T19:55:18;15.00;57.00
44729;DHT22;30457;53.590;9.922;2023-03-23T19:59:43;15.00;57.10
44729;DHT22;30457;53.590;9.922;2023-03-23T20:04:10;15.00;57.10
44729;DHT22;30457;53.590;9.922;2023-03-23T20:08:38;15.00;57.20
44729;DHT22;30457;53.590;9.922;2023-03-23T20:13:04;14.90;57.20
44729;DHT22;30457;53.590;9.922;2023-03-23T20:17:30;14.90;57.20
44729;DHT22;30457;53.590;9.922;2023-03-23T20:21:56;14.90;57.30
44729;DHT22;30457;53.590;9.922;2023-03-23T20:26:25;14.90;57.30
44729;DHT22;30457;53.590;9.922;2023-03-23T20:31:06;14.90;57.30
44729;DHT22;30457;53.590;9.922;2023-03-23T20:35:32;14.90;57.40
44729;DHT22;30457;53.590;9.922;2023-03-23T20:39:57;14.80;57.30
44729;DHT22;30457;53.590;9.922;2023-03-23T20:44:24;14.80;57.40
44729;DHT22;30457;53.590;9.922;2023-03-23T20:48:52;14.80;57.50
44729;DHT22;30457;53.590;9.922;2023-03-23T20:53:17;14.80;57.60
44729;DHT22;30457;53.590;9.922;2023-03-23T20:57:43;14.80;57.70
44729;DHT22;30457;53.590;9.922;2023-03-23T21:02:14;14.80;57.80
44729;DHT22;30457;53.590;9.922;2023-03-23T21:06:41;14.70;57.90
44729;DHT22;30457;53.590;9.922;2023-03-23T21:11:09;14.70;57.90
44729;DHT22;30457;53.590;9.922;2023-03-23T21:15:38;14.70;58.00
44729;DHT22;30457;53.590;9.922;2023-03-23T21:20:05;14.70;58.10
44729;DHT22;30457;53.590;9.922;2023-03-23T21:24:32;14.70;58.20
44729;DHT22;30457;53.590;9.922;2023-03-23T21:29:02;14.70;58.30
44729;DHT22;30457;53.590;9.922;2023-03-23T21:33:29;14.70;58.50
44729;DHT22;30457;53.590;9.922;2023-03-23T21:37:55;14.70;58.50
44729;DHT22;30457;53.590;9.922;2023-03-23T21:42:22;14.70;58.60
44729;DHT22;30457;53.590;9.922;2023-03-23T21:46:54;14.70;58.70
44729;DHT22;30457;53.590;9.922;2023-03-23T21:51:27;14.80;58.90
44729;DHT22;30457;53.590;9.922;2023-03-23T21:55:54;14.80;59.10
44729;DHT22;30457;53.590;9.922;2023-03-23T22:00:19;14.80;59.00
44729;DHT22;30457;53.590;9.922;2023-03-23T22:04:45;14.80;59.10
44729;DHT22;30457;53.590;9.922;2023-03-23T22:09:11;14.80;59.20
44729;DHT22;30457;53.590;9.922;2023-03-23T22:13:37;14.80;59.20
44729;DHT22;30457;53.590;9.922;2023-03-23T22:18:03;14.90;59.30
44729;DHT22;30457;53.590;9.922;2023-03-23T22:22:29;14.90;59.40
44729;DHT22;30457;53.590;9.922;2023-03-23T22:26:55;14.90;59.40
44729;DHT22;30457;53.590;9.922;2023-03-23T22:31:24;14.90;59.40
44729;DHT22;30457;53.590;9.922;2023-03-23T22:35:50;14.90;59.50
44729;DHT22;30457;53.590;9.922;2023-03-23T22:40:16;14.90;59.40
44729;DHT22;30457;53.590;9.922;2023-03-23T22:44:42;15.00;59.40
44729;DHT22;30457;53.590;9.922;2023-03-23T22:49:08;15.00;59.30
44729;DHT22;30457;53.590;9.922;2023-03-23T22:53:34;15.00;59.30
44729;DHT22;30457;53.590;9.922;2023-03-23T22:58:00;15.00;59.30
44729;DHT22;30457;53.590;9.922;2023-03-23T23:02:25;15.00;59.30
44729;DHT22;30457;53.590;9.922;2023-03-23T23:06:51;14.90;59.30
44729;DHT22;30457;53.590;9.922;2023-03-23T23:11:19;14.90;59.40
44729;DHT22;30457;53.590;9.922;2023-03-23T23:15:48;14.90;59.50
44729;DHT22;30457;53.590;9.922;2023-03-23T23:20:15;14.90;59.40
44729;DHT22;30457;53.590;9.922;2023-03-23T23:24:43;14.90;59.40
44729;DHT22;30457;53.590;9.922;2023-03-23T23:29:10;14.90;59.50
44729;DHT22;30457;53.590;9.922;2023-03-23T23:33:36;14.90;59.50
44729;DHT22;30457;53.590;9.922;2023-03-23T23:38:03;14.90;59.50
44729;DHT22;30457;53.590;9.922;2023-03-23T23:42:28;14.90;59.60
44729;DHT22;30457;53.590;9.922;2023-03-23T23:46:54;14.90;59.50
44729;DHT22;30457;53.590;9.922;2023-03-23T23:51:22;14.90;59.50
44729;DHT22;30457;53.590;9.922;2023-03-23T23:55:52;14.90;59.60
